Terminal Aerodrome Forecast
Issued by NWS

Home | Current Version | Previous Version | Text Only | Print | Product List | Glossary Off
Versions: 1 2 3 4 5 6 7 8 9 10 11 12 13 14 15 16 17 18 19 20

000
FTUS43 KMPX 220540
TAFRWF
TAF
KRWF 220540Z 2206/2306 16007KT P6SM SKC
     FM221400 17014G22KT P6SM FEW250
     FM221800 17018G25KT P6SM SCT250
     FM230300 16013KT P6SM VCSH BKN060=

USA.gov is the U.S. government's official web portal to all federal, state and local government web resources and services.